createdAt,value
2023-03-12T00:07:59.782Z,-1.52
2023-03-12T00:18:07.399Z,-1.63
2023-03-12T00:28:14.602Z,-1.80
2023-03-12T00:38:22.879Z,-1.91
2023-03-12T00:48:30.550Z,-1.86
2023-03-12T00:58:36.614Z,-1.87
2023-03-12T01:08:43.929Z,-1.94
2023-03-12T01:18:51.037Z,-2.07
2023-03-12T01:28:58.010Z,-2.18
2023-03-12T01:39:05.638Z,-2.26
2023-03-12T01:49:15.688Z,-2.31
2023-03-12T01:59:24.538Z,-2.31
2023-03-12T02:09:33.960Z,-2.34
2023-03-12T02:19:39.297Z,-2.34
2023-03-12T02:29:47.928Z,-2.51
2023-03-12T02:39:53.356Z,-2.63
2023-03-12T02:50:00.418Z,-2.63
2023-03-12T03:00:12.340Z,-2.58
2023-03-12T03:10:18.722Z,-2.36
2023-03-12T03:20:27.021Z,-2.39
2023-03-12T03:30:34.470Z,-2.52
2023-03-12T03:40:41.593Z,-2.63
2023-03-12T03:50:49.330Z,-2.62
2023-03-12T04:00:57.240Z,-2.60
2023-03-12T04:11:08.138Z,-2.55
2023-03-12T04:21:16.626Z,-2.61
2023-03-12T04:31:23.943Z,-2.68
2023-03-12T04:41:31.327Z,-2.63
2023-03-12T04:51:37.789Z,-2.55
2023-03-12T05:01:45.199Z,-2.47
2023-03-12T05:11:52.182Z,-2.35
2023-03-12T05:21:59.339Z,-2.36
2023-03-12T05:32:05.792Z,-2.36
2023-03-12T05:42:12.884Z,-2.14
2023-03-12T05:52:19.866Z,-1.81
2023-03-12T06:02:27.076Z,-1.71
2023-03-12T06:12:34.460Z,-1.24
2023-03-12T06:22:41.880Z,-1.13
2023-03-12T06:32:49.022Z,-0.90
2023-03-12T06:42:56.239Z,-0.24
2023-03-12T06:53:03.303Z,0.47
2023-03-12T07:03:10.701Z,0.33
2023-03-12T07:13:18.108Z,1.08
2023-03-12T07:23:25.886Z,1.78
2023-03-12T07:33:33.328Z,2.09
2023-03-12T07:43:40.828Z,1.73
2023-03-12T07:53:49.069Z,2.34
2023-03-12T08:03:56.245Z,2.72
2023-03-12T08:14:03.961Z,3.23
2023-03-12T08:24:08.975Z,3.59
2023-03-12T08:34:15.960Z,2.97
2023-03-12T08:44:23.179Z,2.72
2023-03-12T08:54:30.653Z,3.45
2023-03-12T09:04:37.788Z,3.86
2023-03-12T09:25:14.312Z,4.48
2023-03-12T09:35:21.804Z,4.59
2023-03-12T09:45:28.994Z,4.77
2023-03-12T09:55:38.291Z,4.45
2023-03-12T10:05:47.205Z,4.78
2023-03-12T10:15:56.980Z,4.74
2023-03-12T10:26:05.960Z,4.75
2023-03-12T10:36:16.899Z,5.16
2023-03-12T10:46:51.759Z,5.03
2023-03-12T10:56:59.302Z,4.81
2023-03-12T11:07:08.542Z,5.27
2023-03-12T11:17:21.234Z,4.78
2023-03-12T11:27:28.660Z,4.61
2023-03-12T11:37:38.154Z,4.70
2023-03-12T11:47:49.973Z,4.94
2023-03-12T11:57:59.057Z,4.83
2023-03-12T12:08:25.206Z,4.75
2023-03-12T12:18:41.651Z,4.97
2023-03-12T12:29:09.280Z,5.49
2023-03-12T12:39:14.338Z,5.45
2023-03-12T12:49:27.455Z,5.63
2023-03-12T12:59:34.449Z,5.88
2023-03-12T13:09:44.862Z,5.86
2023-03-12T13:19:55.748Z,5.75
2023-03-12T13:30:38.812Z,5.84
2023-03-12T13:41:03.310Z,5.87
2023-03-12T13:51:18.303Z,5.97
2023-03-12T14:01:32.535Z,5.98
2023-03-12T14:11:48.549Z,5.90
2023-03-12T14:21:58.134Z,5.80
2023-03-12T14:32:14.254Z,5.68
2023-03-12T14:42:26.563Z,5.57
2023-03-12T14:52:32.887Z,5.36
2023-03-12T15:02:40.897Z,5.19
2023-03-12T15:12:49.960Z,5.10
2023-03-12T15:22:58.563Z,4.85
2023-03-12T15:33:12.805Z,4.67
2023-03-12T15:43:17.948Z,4.65
2023-03-12T15:53:25.895Z,4.57
2023-03-12T16:03:33.159Z,4.41
2023-03-12T16:13:42.223Z,4.24
2023-03-12T16:23:50.101Z,4.13
2023-03-12T16:33:57.471Z,3.96
2023-03-12T16:44:08.191Z,3.79
2023-03-12T16:54:15.685Z,3.62
2023-03-12T17:14:32.151Z,3.25
2023-03-12T17:24:40.086Z,3.06
2023-03-12T17:34:47.504Z,2.95
2023-03-12T17:44:54.842Z,2.89
2023-03-12T17:55:02.154Z,2.83
2023-03-12T18:05:08.226Z,2.75
2023-03-12T18:15:16.982Z,2.67
2023-03-12T18:25:24.326Z,2.61
2023-03-12T18:35:31.937Z,2.56
2023-03-12T18:45:42.510Z,2.54
2023-03-12T18:55:52.073Z,2.54
2023-03-12T19:06:02.603Z,2.52
2023-03-12T19:16:08.630Z,2.50
2023-03-12T19:26:16.271Z,2.48
2023-03-12T19:36:23.579Z,2.50
2023-03-12T19:46:31.549Z,2.53
2023-03-12T19:56:38.996Z,2.54
2023-03-12T20:06:44.233Z,2.54
2023-03-12T20:16:51.573Z,2.54
2023-03-12T20:26:58.847Z,2.52
2023-03-12T20:37:06.051Z,2.50
2023-03-12T20:47:13.376Z,2.47
2023-03-12T20:57:20.659Z,2.43
2023-03-12T21:07:27.988Z,2.44
2023-03-12T21:17:34.266Z,2.44
2023-03-12T21:27:50.534Z,2.44
2023-03-12T21:37:59.194Z,2.43
2023-03-12T21:48:06.671Z,2.43
2023-03-12T21:58:13.826Z,2.47
2023-03-12T22:08:20.947Z,2.53
2023-03-12T22:18:29.432Z,2.60
2023-03-12T22:28:37.155Z,2.69
2023-03-12T22:38:45.032Z,2.74
2023-03-12T22:48:56.505Z,2.77
2023-03-12T22:59:03.532Z,2.77
2023-03-12T23:09:10.890Z,2.80
2023-03-12T23:19:16.943Z,2.80
2023-03-12T23:29:24.368Z,2.67
2023-03-12T23:39:35.361Z,2.65
2023-03-12T23:49:46.545Z,2.68
2023-03-12T23:59:53.905Z,2.66
